sensor_id;sensor_type;location;lat;lon;timestamp;P1;durP1;ratioP1;P2;durP2;ratioP2
38208;SDS011;24016;52.102;11.584;2023-07-29T00:00:56;3.90;;;3.50;;
38208;SDS011;24016;52.102;11.584;2023-07-29T00:03:21;4.78;;;3.70;;
38208;SDS011;24016;52.102;11.584;2023-07-29T00:05:47;5.03;;;4.00;;
38208;SDS011;24016;52.102;11.584;2023-07-29T00:08:13;4.00;;;3.60;;
38208;SDS011;24016;52.102;11.584;2023-07-29T00:10:39;6.13;;;3.92;;
38208;SDS011;24016;52.102;11.584;2023-07-29T00:13:04;5.72;;;4.30;;
38208;SDS011;24016;52.102;11.584;2023-07-29T00:15:30;5.07;;;4.15;;
38208;SDS011;24016;52.102;11.584;2023-07-29T00:17:56;6.63;;;4.40;;
38208;SDS011;24016;52.102;11.584;2023-07-29T00:20:22;5.05;;;4.47;;
38208;SDS011;24016;52.102;11.584;2023-07-29T00:22:47;4.78;;;4.18;;
38208;SDS011;24016;52.102;11.584;2023-07-29T00:25:15;4.78;;;4.20;;
38208;SDS011;24016;52.102;11.584;2023-07-29T00:27:41;5.65;;;4.68;;
38208;SDS011;24016;52.102;11.584;2023-07-29T00:30:07;5.40;;;4.82;;
38208;SDS011;24016;52.102;11.584;2023-07-29T00:32:33;6.55;;;4.38;;
38208;SDS011;24016;52.102;11.584;2023-07-29T00:35:00;5.13;;;4.60;;
38208;SDS011;24016;52.102;11.584;2023-07-29T00:37:26;5.32;;;4.75;;
38208;SDS011;24016;52.102;11.584;2023-07-29T00:39:52;5.47;;;4.97;;
38208;SDS011;24016;52.102;11.584;2023-07-29T00:42:18;6.18;;;5.45;;
38208;SDS011;24016;52.102;11.584;2023-07-29T00:44:43;6.00;;;5.40;;
38208;SDS011;24016;52.102;11.584;2023-07-29T00:47:09;6.07;;;4.70;;
38208;SDS011;24016;52.102;11.584;2023-07-29T00:49:36;9.75;;;5.22;;
38208;SDS011;24016;52.102;11.584;2023-07-29T00:52:01;8.07;;;5.80;;
38208;SDS011;24016;52.102;11.584;2023-07-29T00:54:27;6.43;;;5.80;;
38208;SDS011;24016;52.102;11.584;2023-07-29T00:56:53;6.40;;;5.75;;
38208;SDS011;24016;52.102;11.584;2023-07-29T00:59:19;6.90;;;5.60;;
38208;SDS011;24016;52.102;11.584;2023-07-29T01:01:45;7.10;;;6.40;;
38208;SDS011;24016;52.102;11.584;2023-07-29T01:04:10;7.07;;;6.00;;
38208;SDS011;24016;52.102;11.584;2023-07-29T01:09:39;6.57;;;5.45;;
38208;SDS011;24016;52.102;11.584;2023-07-29T01:12:12;6.53;;;5.75;;
38208;SDS011;24016;52.102;11.584;2023-07-29T01:14:51;7.63;;;5.65;;
38208;SDS011;24016;52.102;11.584;2023-07-29T01:17:33;7.63;;;6.70;;
38208;SDS011;24016;52.102;11.584;2023-07-29T01:20:07;9.57;;;6.50;;
38208;SDS011;24016;52.102;11.584;2023-07-29T01:22:34;7.78;;;6.93;;
38208;SDS011;24016;52.102;11.584;2023-07-29T01:25:01;9.60;;;7.60;;
38208;SDS011;24016;52.102;11.584;2023-07-29T01:27:27;7.05;;;6.28;;
38208;SDS011;24016;52.102;11.584;2023-07-29T01:29:53;8.27;;;6.32;;
38208;SDS011;24016;52.102;11.584;2023-07-29T01:38:43;6.57;;;5.88;;
38208;SDS011;24016;52.102;11.584;2023-07-29T01:41:10;6.47;;;5.40;;
38208;SDS011;24016;52.102;11.584;2023-07-29T01:43:36;5.45;;;4.95;;
38208;SDS011;24016;52.102;11.584;2023-07-29T01:46:07;7.95;;;5.68;;
38208;SDS011;24016;52.102;11.584;2023-07-29T01:48:35;6.28;;;5.43;;
38208;SDS011;24016;52.102;11.584;2023-07-29T01:51:01;7.00;;;5.82;;
38208;SDS011;24016;52.102;11.584;2023-07-29T01:53:27;7.95;;;7.15;;
38208;SDS011;24016;52.102;11.584;2023-07-29T01:55:52;7.15;;;6.45;;
38208;SDS011;24016;52.102;11.584;2023-07-29T01:58:18;7.97;;;6.05;;
38208;SDS011;24016;52.102;11.584;2023-07-29T02:00:43;8.00;;;6.20;;
38208;SDS011;24016;52.102;11.584;2023-07-29T02:03:09;7.88;;;6.65;;
38208;SDS011;24016;52.102;11.584;2023-07-29T02:05:34;7.43;;;6.72;;
38208;SDS011;24016;52.102;11.584;2023-07-29T02:08:00;9.00;;;7.35;;
38208;SDS011;24016;52.102;11.584;2023-07-29T02:10:25;7.55;;;6.43;;
38208;SDS011;24016;52.102;11.584;2023-07-29T02:12:51;9.07;;;7.15;;
38208;SDS011;24016;52.102;11.584;2023-07-29T02:15:17;9.57;;;7.75;;
38208;SDS011;24016;52.102;11.584;2023-07-29T02:17:42;9.20;;;7.38;;
38208;SDS011;24016;52.102;11.584;2023-07-29T02:20:08;10.70;;;8.02;;
38208;SDS011;24016;52.102;11.584;2023-07-29T02:22:35;8.27;;;7.22;;
38208;SDS011;24016;52.102;11.584;2023-07-29T02:25:01;7.70;;;6.53;;
38208;SDS011;24016;52.102;11.584;2023-07-29T02:27:27;7.47;;;6.03;;
38208;SDS011;24016;52.102;11.584;2023-07-29T02:29:53;9.13;;;8.00;;
38208;SDS011;24016;52.102;11.584;2023-07-29T02:32:19;9.23;;;7.40;;
38208;SDS011;24016;52.102;11.584;2023-07-29T02:34:45;10.02;;;7.10;;
38208;SDS011;24016;52.102;11.584;2023-07-29T02:37:11;7.35;;;6.40;;
38208;SDS011;24016;52.102;11.584;2023-07-29T02:39:36;7.95;;;6.82;;
38208;SDS011;24016;52.102;11.584;2023-07-29T02:42:02;8.98;;;7.53;;
38208;SDS011;24016;52.102;11.584;2023-07-29T02:44:28;9.13;;;8.18;;
38208;SDS011;24016;52.102;11.584;2023-07-29T02:46:54;8.13;;;7.32;;
38208;SDS011;24016;52.102;11.584;2023-07-29T02:49:27;10.15;;;7.63;;
38208;SDS011;24016;52.102;11.584;2023-07-29T02:52:01;8.38;;;7.18;;
38208;SDS011;24016;52.102;11.584;2023-07-29T02:54:29;8.20;;;7.38;;
38208;SDS011;24016;52.102;11.584;2023-07-29T02:56:54;11.82;;;8.60;;
38208;SDS011;24016;52.102;11.584;2023-07-29T02:59:20;10.65;;;7.93;;
38208;SDS011;24016;52.102;11.584;2023-07-29T03:01:46;10.07;;;8.07;;
38208;SDS011;24016;52.102;11.584;2023-07-29T03:04:11;11.20;;;8.25;;
38208;SDS011;24016;52.102;11.584;2023-07-29T03:06:38;10.10;;;7.38;;
38208;SDS011;24016;52.102;11.584;2023-07-29T03:09:03;7.82;;;7.03;;
38208;SDS011;24016;52.102;11.584;2023-07-29T03:11:29;8.50;;;7.10;;
38208;SDS011;24016;52.102;11.584;2023-07-29T03:13:56;8.95;;;8.02;;
38208;SDS011;24016;52.102;11.584;2023-07-29T03:16:21;9.02;;;8.13;;
38208;SDS011;24016;52.102;11.584;2023-07-29T03:18:47;10.43;;;8.13;;
38208;SDS011;24016;52.102;11.584;2023-07-29T03:21:13;9.45;;;7.68;;
38208;SDS011;24016;52.102;11.584;2023-07-29T03:23:39;9.45;;;8.45;;
38208;SDS011;24016;52.102;11.584;2023-07-29T03:26:05;11.25;;;7.60;;
38208;SDS011;24016;52.102;11.584;2023-07-29T03:28:44;9.70;;;8.30;;
38208;SDS011;24016;52.102;11.584;2023-07-29T03:31:45;10.93;;;8.93;;
38208;SDS011;24016;52.102;11.584;2023-07-29T03:34:36;9.30;;;7.65;;
38208;SDS011;24016;52.102;11.584;2023-07-29T03:37:02;10.55;;;8.52;;
38208;SDS011;24016;52.102;11.584;2023-07-29T03:39:28;9.77;;;8.73;;
38208;SDS011;24016;52.102;11.584;2023-07-29T03:41:53;10.00;;;9.00;;
38208;SDS011;24016;52.102;11.584;2023-07-29T03:44:19;12.68;;;9.48;;
38208;SDS011;24016;52.102;11.584;2023-07-29T03:46:44;10.02;;;8.85;;
38208;SDS011;24016;52.102;11.584;2023-07-29T03:49:10;9.27;;;8.30;;
38208;SDS011;24016;52.102;11.584;2023-07-29T03:51:36;10.40;;;7.97;;
38208;SDS011;24016;52.102;11.584;2023-07-29T03:54:01;13.20;;;8.68;;
38208;SDS011;24016;52.102;11.584;2023-07-29T03:56:27;10.88;;;8.05;;
38208;SDS011;24016;52.102;11.584;2023-07-29T03:58:52;9.07;;;8.15;;
38208;SDS011;24016;52.102;11.584;2023-07-29T04:01:18;9.95;;;8.55;;
38208;SDS011;24016;52.102;11.584;2023-07-29T04:03:45;9.07;;;7.40;;
38208;SDS011;24016;52.102;11.584;2023-07-29T04:06:13;8.80;;;7.93;;
38208;SDS011;24016;52.102;11.584;2023-07-29T04:08:38;9.98;;;8.25;;
38208;SDS011;24016;52.102;11.584;2023-07-29T04:11:04;9.75;;;8.63;;
38208;SDS011;24016;52.102;11.584;2023-07-29T04:13:30;9.27;;;8.30;;
38208;SDS011;24016;52.102;11.584;2023-07-29T04:15:55;9.20;;;8.30;;
38208;SDS011;24016;52.102;11.584;2023-07-29T04:18:21;12.43;;;8.70;;
38208;SDS011;24016;52.102;11.584;2023-07-29T04:20:46;10.70;;;8.98;;
38208;SDS011;24016;52.102;11.584;2023-07-29T04:23:12;9.35;;;8.00;;
38208;SDS011;24016;52.102;11.584;2023-07-29T04:25:38;9.75;;;7.95;;
38208;SDS011;24016;52.102;11.584;2023-07-29T04:28:03;10.00;;;8.40;;
38208;SDS011;24016;52.102;11.584;2023-07-29T04:30:30;9.88;;;8.57;;
38208;SDS011;24016;52.102;11.584;2023-07-29T04:32:55;9.23;;;7.90;;
38208;SDS011;24016;52.102;11.584;2023-07-29T04:35:21;8.73;;;7.80;;
38208;SDS011;24016;52.102;11.584;2023-07-29T04:37:46;8.65;;;7.82;;
38208;SDS011;24016;52.102;11.584;2023-07-29T04:40:13;8.73;;;6.78;;
38208;SDS011;24016;52.102;11.584;2023-07-29T04:42:38;8.15;;;6.97;;
38208;SDS011;24016;52.102;11.584;2023-07-29T04:45:04;7.13;;;6.25;;
38208;SDS011;24016;52.102;11.584;2023-07-29T04:47:30;9.10;;;6.95;;
38208;SDS011;24016;52.102;11.584;2023-07-29T04:49:56;7.20;;;6.15;;
38208;SDS011;24016;52.102;11.584;2023-07-29T04:52:21;6.20;;;5.60;;
38208;SDS011;24016;52.102;11.584;2023-07-29T04:54:47;5.82;;;5.13;;
38208;SDS011;24016;52.102;11.584;2023-07-29T04:57:13;6.68;;;4.78;;
38208;SDS011;24016;52.102;11.584;2023-07-29T04:59:38;5.25;;;4.75;;
38208;SDS011;24016;52.102;11.584;2023-07-29T05:02:04;6.50;;;4.60;;
38208;SDS011;24016;52.102;11.584;2023-07-29T05:07:20;5.28;;;3.83;;
38208;SDS011;24016;52.102;11.584;2023-07-29T05:09:46;5.00;;;3.50;;
38208;SDS011;24016;52.102;11.584;2023-07-29T05:12:12;4.47;;;3.22;;
38208;SDS011;24016;52.102;11.584;2023-07-29T05:14:38;8.00;;;2.92;;
38208;SDS011;24016;52.102;11.584;2023-07-29T05:17:04;4.38;;;2.70;;
38208;SDS011;24016;52.102;11.584;2023-07-29T05:19:30;3.22;;;2.10;;
38208;SDS011;24016;52.102;11.584;2023-07-29T05:21:56;4.00;;;2.13;;
38208;SDS011;24016;52.102;11.584;2023-07-29T05:24:22;2.95;;;2.00;;
38208;SDS011;24016;52.102;11.584;2023-07-29T05:26:48;5.90;;;2.00;;
38208;SDS011;24016;52.102;11.584;2023-07-29T05:29:13;2.67;;;2.00;;
38208;SDS011;24016;52.102;11.584;2023-07-29T05:31:39;5.13;;;1.73;;
38208;SDS011;24016;52.102;11.584;2023-07-29T05:34:05;2.03;;;1.83;;
38208;SDS011;24016;52.102;11.584;2023-07-29T05:36:30;2.58;;;2.00;;
38208;SDS011;24016;52.102;11.584;2023-07-29T05:38:56;2.47;;;1.90;;
38208;SDS011;24016;52.102;11.584;2023-07-29T05:41:21;2.85;;;1.90;;
38208;SDS011;24016;52.102;11.584;2023-07-29T05:43:47;2.10;;;1.60;;
38208;SDS011;24016;52.102;11.584;2023-07-29T05:46:13;3.10;;;1.92;;
38208;SDS011;24016;52.102;11.584;2023-07-29T05:48:38;5.28;;;1.73;;
38208;SDS011;24016;52.102;11.584;2023-07-29T05:53:45;2.20;;;1.80;;
38208;SDS011;24016;52.102;11.584;2023-07-29T05:56:10;2.63;;;1.77;;
38208;SDS011;24016;52.102;11.584;2023-07-29T05:58:36;2.60;;;1.63;;
38208;SDS011;24016;52.102;11.584;2023-07-29T06:01:01;5.00;;;1.50;;
38208;SDS011;24016;52.102;11.584;2023-07-29T06:03:27;2.75;;;1.85;;
38208;SDS011;24016;52.102;11.584;2023-07-29T06:05:53;2.97;;;1.60;;
38208;SDS011;24016;52.102;11.584;2023-07-29T06:08:19;1.98;;;1.50;;
38208;SDS011;24016;52.102;11.584;2023-07-29T06:10:44;3.25;;;1.60;;
38208;SDS011;24016;52.102;11.584;2023-07-29T06:13:10;3.78;;;1.60;;
38208;SDS011;24016;52.102;11.584;2023-07-29T06:15:35;3.60;;;1.63;;
38208;SDS011;24016;52.102;11.584;2023-07-29T06:18:01;4.25;;;2.65;;
38208;SDS011;24016;52.102;11.584;2023-07-29T06:20:26;2.30;;;1.70;;
38208;SDS011;24016;52.102;11.584;2023-07-29T06:22:52;3.25;;;1.52;;
38208;SDS011;24016;52.102;11.584;2023-07-29T06:25:18;5.25;;;1.70;;
38208;SDS011;24016;52.102;11.584;2023-07-29T06:27:43;3.63;;;1.70;;
38208;SDS011;24016;52.102;11.584;2023-07-29T06:30:09;3.55;;;2.03;;
38208;SDS011;24016;52.102;11.584;2023-07-29T06:32:34;4.55;;;1.50;;
38208;SDS011;24016;52.102;11.584;2023-07-29T06:35:00;3.60;;;1.70;;
38208;SDS011;24016;52.102;11.584;2023-07-29T06:37:26;1.90;;;1.40;;
38208;SDS011;24016;52.102;11.584;2023-07-29T06:39:51;2.45;;;1.55;;
38208;SDS011;24016;52.102;11.584;2023-07-29T06:42:17;2.95;;;1.30;;
38208;SDS011;24016;52.102;11.584;2023-07-29T06:44:42;2.42;;;1.55;;
38208;SDS011;24016;52.102;11.584;2023-07-29T06:47:10;1.63;;;1.20;;
38208;SDS011;24016;52.102;11.584;2023-07-29T06:49:36;2.33;;;1.20;;
38208;SDS011;24016;52.102;11.584;2023-07-29T06:52:02;3.28;;;1.40;;
38208;SDS011;24016;52.102;11.584;2023-07-29T06:54:28;3.72;;;1.48;;
38208;SDS011;24016;52.102;11.584;2023-07-29T06:56:53;2.40;;;1.65;;
38208;SDS011;24016;52.102;11.584;2023-07-29T06:59:19;3.15;;;1.38;;
38208;SDS011;24016;52.102;11.584;2023-07-29T07:01:45;1.70;;;1.30;;
38208;SDS011;24016;52.102;11.584;2023-07-29T07:04:10;3.65;;;2.00;;
38208;SDS011;24016;52.102;11.584;2023-07-29T07:06:36;2.63;;;1.73;;
38208;SDS011;24016;52.102;11.584;2023-07-29T07:09:02;3.20;;;1.58;;
38208;SDS011;24016;52.102;11.584;2023-07-29T07:11:27;3.53;;;1.70;;
38208;SDS011;24016;52.102;11.584;2023-07-29T07:13:53;2.70;;;1.70;;
38208;SDS011;24016;52.102;11.584;2023-07-29T07:16:18;12.73;;;2.35;;
38208;SDS011;24016;52.102;11.584;2023-07-29T07:18:44;7.88;;;2.63;;
38208;SDS011;24016;52.102;11.584;2023-07-29T07:21:10;5.72;;;2.45;;
38208;SDS011;24016;52.102;11.584;2023-07-29T07:23:35;4.40;;;2.60;;
38208;SDS011;24016;52.102;11.584;2023-07-29T07:26:01;6.18;;;2.63;;
38208;SDS011;24016;52.102;11.584;2023-07-29T07:28:27;5.50;;;3.08;;
38208;SDS011;24016;52.102;11.584;2023-07-29T07:30:53;6.80;;;3.10;;
38208;SDS011;24016;52.102;11.584;2023-07-29T07:33:20;4.88;;;3.08;;
38208;SDS011;24016;52.102;11.584;2023-07-29T07:35:46;6.70;;;3.17;;
38208;SDS011;24016;52.102;11.584;2023-07-29T07:38:12;5.45;;;3.30;;
38208;SDS011;24016;52.102;11.584;2023-07-29T07:40:37;8.02;;;3.20;;
38208;SDS011;24016;52.102;11.584;2023-07-29T07:43:03;5.43;;;3.30;;
38208;SDS011;24016;52.102;11.584;2023-07-29T07:45:28;4.07;;;2.95;;
38208;SDS011;24016;52.102;11.584;2023-07-29T07:47:54;7.50;;;3.30;;
38208;SDS011;24016;52.102;11.584;2023-07-29T07:50:20;3.80;;;2.90;;
38208;SDS011;24016;52.102;11.584;2023-07-29T07:52:46;5.70;;;3.00;;
38208;SDS011;24016;52.102;11.584;2023-07-29T07:55:12;3.67;;;2.60;;
38208;SDS011;24016;52.102;11.584;2023-07-29T07:57:37;4.18;;;2.65;;
38208;SDS011;24016;52.102;11.584;2023-07-29T08:00:03;4.43;;;3.10;;
38208;SDS011;24016;52.102;11.584;2023-07-29T08:02:29;4.13;;;2.78;;
38208;SDS011;24016;52.102;11.584;2023-07-29T08:04:55;4.20;;;2.78;;
38208;SDS011;24016;52.102;11.584;2023-07-29T08:07:20;6.18;;;3.15;;
38208;SDS011;24016;52.102;11.584;2023-07-29T08:09:46;4.30;;;2.90;;
38208;SDS011;24016;52.102;11.584;2023-07-29T08:12:12;2.95;;;2.58;;
38208;SDS011;24016;52.102;11.584;2023-07-29T08:14:37;5.00;;;2.78;;
38208;SDS011;24016;52.102;11.584;2023-07-29T08:17:03;8.20;;;3.30;;
38208;SDS011;24016;52.102;11.584;2023-07-29T08:19:29;4.10;;;3.22;;
38208;SDS011;24016;52.102;11.584;2023-07-29T08:21:54;5.07;;;3.28;;
38208;SDS011;24016;52.102;11.584;2023-07-29T08:24:20;4.00;;;2.83;;
38208;SDS011;24016;52.102;11.584;2023-07-29T08:26:45;4.15;;;3.10;;
38208;SDS011;24016;52.102;11.584;2023-07-29T08:29:11;4.00;;;2.60;;
38208;SDS011;24016;52.102;11.584;2023-07-29T08:31:37;4.88;;;2.75;;
38208;SDS011;24016;52.102;11.584;2023-07-29T08:34:02;3.80;;;2.42;;
38208;SDS011;24016;52.102;11.584;2023-07-29T08:36:28;3.72;;;2.50;;
38208;SDS011;24016;52.102;11.584;2023-07-29T08:38:53;4.45;;;2.97;;
38208;SDS011;24016;52.102;11.584;2023-07-29T08:41:21;4.38;;;2.95;;
38208;SDS011;24016;52.102;11.584;2023-07-29T08:46:48;3.92;;;2.72;;
38208;SDS011;24016;52.102;11.584;2023-07-29T08:49:15;4.60;;;3.20;;
38208;SDS011;24016;52.102;11.584;2023-07-29T08:51:44;7.53;;;4.20;;
38208;SDS011;24016;52.102;11.584;2023-07-29T08:54:13;6.15;;;3.38;;
38208;SDS011;24016;52.102;11.584;2023-07-29T08:56:43;5.82;;;3.20;;
38208;SDS011;24016;52.102;11.584;2023-07-29T08:59:09;5.80;;;3.22;;
38208;SDS011;24016;52.102;11.584;2023-07-29T09:01:36;7.30;;;3.72;;
38208;SDS011;24016;52.102;11.584;2023-07-29T09:04:04;5.40;;;3.20;;
38208;SDS011;24016;52.102;11.584;2023-07-29T09:06:30;6.63;;;3.72;;
38208;SDS011;24016;52.102;11.584;2023-07-29T09:08:56;11.90;;;4.13;;
38208;SDS011;24016;52.102;11.584;2023-07-29T09:11:24;6.85;;;4.05;;
38208;SDS011;24016;52.102;11.584;2023-07-29T09:13:49;5.53;;;3.63;;
38208;SDS011;24016;52.102;11.584;2023-07-29T09:16:15;7.47;;;3.97;;
38208;SDS011;24016;52.102;11.584;2023-07-29T09:18:41;7.30;;;3.75;;
38208;SDS011;24016;52.102;11.584;2023-07-29T09:21:06;8.45;;;3.80;;
38208;SDS011;24016;52.102;11.584;2023-07-29T09:23:40;7.30;;;3.70;;
38208;SDS011;24016;52.102;11.584;2023-07-29T09:26:09;4.40;;;2.95;;
38208;SDS011;24016;52.102;11.584;2023-07-29T09:28:39;4.20;;;2.80;;
38208;SDS011;24016;52.102;11.584;2023-07-29T09:31:05;5.68;;;2.95;;
38208;SDS011;24016;52.102;11.584;2023-07-29T09:33:35;5.25;;;2.78;;
38208;SDS011;24016;52.102;11.584;2023-07-29T09:36:02;5.68;;;2.83;;
38208;SDS011;24016;52.102;11.584;2023-07-29T09:41:00;4.03;;;2.50;;
38208;SDS011;24016;52.102;11.584;2023-07-29T09:43:30;5.55;;;2.38;;
38208;SDS011;24016;52.102;11.584;2023-07-29T09:46:00;6.05;;;2.85;;
38208;SDS011;24016;52.102;11.584;2023-07-29T09:48:32;2.90;;;2.20;;
38208;SDS011;24016;52.102;11.584;2023-07-29T09:51:14;5.60;;;1.95;;
38208;SDS011;24016;52.102;11.584;2023-07-29T09:53:44;2.72;;;1.80;;
38208;SDS011;24016;52.102;11.584;2023-07-29T09:56:11;5.75;;;2.35;;
38208;SDS011;24016;52.102;11.584;2023-07-29T09:58:37;5.85;;;2.53;;
38208;SDS011;24016;52.102;11.584;2023-07-29T10:01:04;4.00;;;1.80;;
38208;SDS011;24016;52.102;11.584;2023-07-29T10:03:33;2.03;;;1.40;;
38208;SDS011;24016;52.102;11.584;2023-07-29T10:06:02;1.80;;;1.30;;
38208;SDS011;24016;52.102;11.584;2023-07-29T10:08:29;3.63;;;1.58;;
38208;SDS011;24016;52.102;11.584;2023-07-29T10:10:58;2.40;;;1.30;;
38208;SDS011;24016;52.102;11.584;2023-07-29T10:13:25;2.10;;;1.33;;
38208;SDS011;24016;52.102;11.584;2023-07-29T10:15:51;5.13;;;1.23;;
38208;SDS011;24016;52.102;11.584;2023-07-29T10:18:19;1.45;;;1.05;;
38208;SDS011;24016;52.102;11.584;2023-07-29T10:20:47;4.43;;;1.15;;
38208;SDS011;24016;52.102;11.584;2023-07-29T10:23:15;2.70;;;1.20;;
38208;SDS011;24016;52.102;11.584;2023-07-29T10:25:46;1.95;;;1.00;;
38208;SDS011;24016;52.102;11.584;2023-07-29T10:28:14;1.63;;;1.00;;
38208;SDS011;24016;52.102;11.584;2023-07-29T10:30:42;1.48;;;1.00;;
38208;SDS011;24016;52.102;11.584;2023-07-29T10:33:08;1.50;;;1.00;;
38208;SDS011;24016;52.102;11.584;2023-07-29T10:35:35;2.83;;;1.10;;
38208;SDS011;24016;52.102;11.584;2023-07-29T10:38:02;3.13;;;1.10;;
38208;SDS011;24016;52.102;11.584;2023-07-29T10:40:45;1.52;;;0.95;;
38208;SDS011;24016;52.102;11.584;2023-07-29T10:43:12;1.58;;;1.10;;
38208;SDS011;24016;52.102;11.584;2023-07-29T10:45:43;1.23;;;1.10;;
38208;SDS011;24016;52.102;11.584;2023-07-29T10:48:12;3.28;;;0.90;;
38208;SDS011;24016;52.102;11.584;2023-07-29T10:53:56;1.92;;;0.82;;
38208;SDS011;24016;52.102;11.584;2023-07-29T10:56:26;2.05;;;1.00;;
38208;SDS011;24016;52.102;11.584;2023-07-29T10:58:57;0.77;;;0.70;;
38208;SDS011;24016;52.102;11.584;2023-07-29T11:01:28;1.13;;;0.70;;
38208;SDS011;24016;52.102;11.584;2023-07-29T11:17:40;1.38;;;0.70;;
38208;SDS011;24016;52.102;11.584;2023-07-29T11:20:08;1.20;;;0.80;;
38208;SDS011;24016;52.102;11.584;2023-07-29T11:22:35;2.63;;;0.68;;
38208;SDS011;24016;52.102;11.584;2023-07-29T11:25:01;1.20;;;0.82;;
38208;SDS011;24016;52.102;11.584;2023-07-29T11:27:27;2.08;;;0.70;;
38208;SDS011;24016;52.102;11.584;2023-07-29T11:29:56;1.80;;;0.90;;
38208;SDS011;24016;52.102;11.584;2023-07-29T11:32:23;0.83;;;0.80;;
38208;SDS011;24016;52.102;11.584;2023-07-29T11:34:49;1.75;;;1.00;;
38208;SDS011;24016;52.102;11.584;2023-07-29T11:37:14;1.23;;;0.85;;
38208;SDS011;24016;52.102;11.584;2023-07-29T11:39:41;1.95;;;0.93;;
38208;SDS011;24016;52.102;11.584;2023-07-29T11:42:06;1.20;;;1.10;;
38208;SDS011;24016;52.102;11.584;2023-07-29T11:44:36;2.75;;;1.10;;
38208;SDS011;24016;52.102;11.584;2023-07-29T11:47:01;1.23;;;1.13;;
38208;SDS011;24016;52.102;11.584;2023-07-29T11:49:27;2.63;;;1.05;;
38208;SDS011;24016;52.102;11.584;2023-07-29T11:51:52;1.15;;;1.00;;
38208;SDS011;24016;52.102;11.584;2023-07-29T11:54:18;1.70;;;1.33;;
38208;SDS011;24016;52.102;11.584;2023-07-29T11:56:46;1.67;;;1.20;;
38208;SDS011;24016;52.102;11.584;2023-07-29T11:59:12;2.72;;;1.30;;
38208;SDS011;24016;52.102;11.584;2023-07-29T12:01:39;2.10;;;1.50;;
38208;SDS011;24016;52.102;11.584;2023-07-29T12:04:05;4.68;;;1.50;;
38208;SDS011;24016;52.102;11.584;2023-07-29T12:06:30;2.42;;;1.60;;
38208;SDS011;24016;52.102;11.584;2023-07-29T12:08:56;2.53;;;1.63;;
38208;SDS011;24016;52.102;11.584;2023-07-29T12:11:22;3.63;;;1.60;;
38208;SDS011;24016;52.102;11.584;2023-07-29T12:13:48;3.92;;;1.60;;
38208;SDS011;24016;52.102;11.584;2023-07-29T12:16:17;1.83;;;1.25;;
38208;SDS011;24016;52.102;11.584;2023-07-29T12:18:43;2.13;;;1.40;;
38208;SDS011;24016;52.102;11.584;2023-07-29T12:21:08;2.25;;;1.10;;
38208;SDS011;24016;52.102;11.584;2023-07-29T12:23:34;1.00;;;0.88;;
38208;SDS011;24016;52.102;11.584;2023-07-29T12:26:00;2.65;;;0.98;;
38208;SDS011;24016;52.102;11.584;2023-07-29T12:28:26;1.95;;;1.00;;
38208;SDS011;24016;52.102;11.584;2023-07-29T12:30:55;1.10;;;0.80;;
38208;SDS011;24016;52.102;11.584;2023-07-29T12:33:31;1.02;;;0.90;;
38208;SDS011;24016;52.102;11.584;2023-07-29T12:35:58;1.20;;;1.10;;
38208;SDS011;24016;52.102;11.584;2023-07-29T12:38:27;1.20;;;0.80;;
38208;SDS011;24016;52.102;11.584;2023-07-29T12:40:53;1.55;;;1.08;;
38208;SDS011;24016;52.102;11.584;2023-07-29T12:43:19;1.10;;;0.90;;
38208;SDS011;24016;52.102;11.584;2023-07-29T12:45:45;1.23;;;0.98;;
38208;SDS011;24016;52.102;11.584;2023-07-29T12:48:11;0.82;;;0.82;;
38208;SDS011;24016;52.102;11.584;2023-07-29T12:50:37;1.67;;;1.17;;
38208;SDS011;24016;52.102;11.584;2023-07-29T12:53:04;2.83;;;1.10;;
38208;SDS011;24016;52.102;11.584;2023-07-29T12:55:31;1.65;;;1.13;;
38208;SDS011;24016;52.102;11.584;2023-07-29T12:57:57;1.85;;;1.20;;
38208;SDS011;24016;52.102;11.584;2023-07-29T13:00:24;1.50;;;1.20;;
38208;SDS011;24016;52.102;11.584;2023-07-29T13:02:49;2.72;;;0.95;;
38208;SDS011;24016;52.102;11.584;2023-07-29T13:05:15;2.75;;;1.50;;
38208;SDS011;24016;52.102;11.584;2023-07-29T13:07:41;2.67;;;1.30;;
38208;SDS011;24016;52.102;11.584;2023-07-29T13:10:08;1.95;;;1.20;;
38208;SDS011;24016;52.102;11.584;2023-07-29T13:12:34;2.45;;;1.23;;
38208;SDS011;24016;52.102;11.584;2023-07-29T13:15:00;1.90;;;1.20;;
38208;SDS011;24016;52.102;11.584;2023-07-29T13:17:25;1.63;;;1.30;;
38208;SDS011;24016;52.102;11.584;2023-07-29T13:19:51;2.30;;;1.60;;
38208;SDS011;24016;52.102;11.584;2023-07-29T13:22:17;2.70;;;1.77;;
38208;SDS011;24016;52.102;11.584;2023-07-29T13:24:42;4.13;;;1.80;;
38208;SDS011;24016;52.102;11.584;2023-07-29T13:27:08;5.90;;;1.90;;
38208;SDS011;24016;52.102;11.584;2023-07-29T13:29:33;2.92;;;1.90;;
38208;SDS011;24016;52.102;11.584;2023-07-29T13:31:59;1.85;;;1.52;;
38208;SDS011;24016;52.102;11.584;2023-07-29T13:34:24;2.97;;;1.42;;
38208;SDS011;24016;52.102;11.584;2023-07-29T13:36:50;1.60;;;1.38;;
38208;SDS011;24016;52.102;11.584;2023-07-29T13:39:16;1.70;;;1.15;;
38208;SDS011;24016;52.102;11.584;2023-07-29T13:41:41;3.20;;;1.48;;
38208;SDS011;24016;52.102;11.584;2023-07-29T13:44:07;2.25;;;1.50;;
38208;SDS011;24016;52.102;11.584;2023-07-29T13:46:32;1.63;;;1.40;;
38208;SDS011;24016;52.102;11.584;2023-07-29T13:48:58;1.67;;;1.48;;
38208;SDS011;24016;52.102;11.584;2023-07-29T13:51:23;3.45;;;1.80;;
38208;SDS011;24016;52.102;11.584;2023-07-29T13:53:49;1.92;;;1.60;;
38208;SDS011;24016;52.102;11.584;2023-07-29T13:56:15;2.20;;;1.50;;
38208;SDS011;24016;52.102;11.584;2023-07-29T13:58:40;3.80;;;1.80;;
38208;SDS011;24016;52.102;11.584;2023-07-29T14:01:06;2.63;;;1.60;;
38208;SDS011;24016;52.102;11.584;2023-07-29T14:03:31;3.50;;;1.80;;
38208;SDS011;24016;52.102;11.584;2023-07-29T14:05:57;2.95;;;1.83;;
38208;SDS011;24016;52.102;11.584;2023-07-29T14:08:22;2.40;;;1.77;;
38208;SDS011;24016;52.102;11.584;2023-07-29T14:10:48;2.65;;;1.90;;
38208;SDS011;24016;52.102;11.584;2023-07-29T14:13:14;5.25;;;2.10;;
38208;SDS011;24016;52.102;11.584;2023-07-29T14:15:40;2.70;;;1.92;;
38208;SDS011;24016;52.102;11.584;2023-07-29T14:18:05;3.10;;;1.98;;
38208;SDS011;24016;52.102;11.584;2023-07-29T14:20:32;3.45;;;2.47;;
38208;SDS011;24016;52.102;11.584;2023-07-29T14:22:57;2.63;;;2.20;;
38208;SDS011;24016;52.102;11.584;2023-07-29T14:25:23;2.20;;;1.90;;
38208;SDS011;24016;52.102;11.584;2023-07-29T14:27:49;2.40;;;1.90;;
38208;SDS011;24016;52.102;11.584;2023-07-29T14:30:15;3.08;;;2.20;;
38208;SDS011;24016;52.102;11.584;2023-07-29T14:32:41;3.38;;;2.17;;
38208;SDS011;24016;52.102;11.584;2023-07-29T14:35:06;3.15;;;2.10;;
38208;SDS011;24016;52.102;11.584;2023-07-29T14:37:33;2.47;;;2.17;;
38208;SDS011;24016;52.102;11.584;2023-07-29T14:39:59;3.25;;;2.28;;
38208;SDS011;24016;52.102;11.584;2023-07-29T14:42:24;4.28;;;2.40;;
38208;SDS011;24016;52.102;11.584;2023-07-29T14:44:50;2.80;;;2.10;;
38208;SDS011;24016;52.102;11.584;2023-07-29T14:47:16;2.95;;;2.38;;
38208;SDS011;24016;52.102;11.584;2023-07-29T14:49:41;2.40;;;2.08;;
38208;SDS011;24016;52.102;11.584;2023-07-29T14:52:07;3.10;;;2.22;;
38208;SDS011;24016;52.102;11.584;2023-07-29T14:54:32;2.70;;;2.08;;
38208;SDS011;24016;52.102;11.584;2023-07-29T14:56:58;2.00;;;1.80;;
38208;SDS011;24016;52.102;11.584;2023-07-29T14:59:23;2.50;;;1.92;;
38208;SDS011;24016;52.102;11.584;2023-07-29T15:01:49;4.10;;;2.00;;
38208;SDS011;24016;52.102;11.584;2023-07-29T15:04:14;5.22;;;1.70;;
38208;SDS011;24016;52.102;11.584;2023-07-29T15:06:41;3.55;;;1.80;;